Time;durP1;ratioP1;P1;durP2;ratioP2;P2;SDS_P1;SDS_P2;PMS_P1;PMS_P2;Temp;Humidity;BMP_temperature;BMP_pressure;BME280_temperature;BME280_humidity;BME280_pressure;Samples;Min_cycle;Max_cycle;Signal;HPM_P1;HPM_P2
2023/02/26 00:01:23;;;;;;;7.38;3.50;;;;;;;2.44;100.00;102027.78;5025538;28;20021;-59
2023/02/26 00:03:50;;;;;;;7.72;3.40;;;;;;;2.40;100.00;102024.28;5026688;28;20096;-58
2023/02/26 00:06:15;;;;;;;10.45;3.38;;;;;;;2.33;100.00;102027.59;5025411;28;20037;-61
2023/02/26 00:08:41;;;;;;;13.98;3.25;;;;;;;2.35;100.00;102030.25;5025064;28;20213;-57
2023/02/26 00:11:08;;;;;;;9.23;2.53;;;;;;;2.37;100.00;102036.31;5010482;28;20044;-55
2023/02/26 00:13:35;;;;;;;8.32;2.83;;;;;;;2.30;100.00;102044.84;5028617;28;20245;-59
2023/02/26 00:16:01;;;;;;;6.32;2.55;;;;;;;2.35;100.00;102048.44;5029643;28;20068;-56
2023/02/26 00:18:26;;;;;;;6.60;2.13;;;;;;;2.30;100.00;102044.84;5012041;28;20071;-57
2023/02/26 00:20:53;;;;;;;12.00;2.80;;;;;;;2.30;100.00;102053.56;5028090;28;20113;-59
2023/02/26 00:23:18;;;;;;;8.05;2.55;;;;;;;2.30;100.00;102047.47;5029564;28;20057;-54
2023/02/26 00:25:44;;;;;;;10.68;3.00;;;;;;;2.27;100.00;102053.50;5025898;28;20061;-57
2023/02/26 00:28:10;;;;;;;10.45;2.47;;;;;;;2.31;100.00;102059.59;5028270;28;20029;-59
2023/02/26 00:30:36;;;;;;;12.38;2.70;;;;;;;2.27;100.00;102063.88;5027622;28;20053;-56
2023/02/26 00:33:02;;;;;;;6.50;3.45;;;;;;;2.14;100.00;102073.16;5027134;28;20033;-58
2023/02/26 00:35:28;;;;;;;8.07;2.40;;;;;;;2.07;100.00;102073.84;5028136;28;20032;-56
2023/02/26 00:37:58;;;;;;;8.88;2.53;;;;;;;2.15;100.00;102082.72;5028605;28;20025;-56
2023/02/26 00:40:27;;;;;;;13.02;2.90;;;;;;;2.14;100.00;102083.56;5010560;28;20108;-58
2023/02/26 00:42:52;;;;;;;11.77;3.08;;;;;;;2.26;100.00;102089.00;5029051;28;20030;-60
2023/02/26 00:45:18;;;;;;;16.52;3.38;;;;;;;2.41;100.00;102087.59;5027125;28;20030;-59
2023/02/26 00:48:04;;;;;;;8.80;2.22;;;;;;;2.48;100.00;102089.47;5008973;28;20477;-56
2023/02/26 00:50:30;;;;;;;7.28;2.13;;;;;;;2.48;100.00;102084.28;5007075;28;20477;-58
2023/02/26 00:53:01;;;;;;;8.20;1.83;;;;;;;2.59;100.00;102086.22;5018017;28;20424;-57
2023/02/26 00:55:27;;;;;;;6.82;1.98;;;;;;;2.58;100.00;102090.53;5027771;28;20033;-59
2023/02/26 00:57:52;;;;;;;7.10;2.08;;;;;;;2.73;100.00;102095.16;5010473;28;20029;-57
2023/02/26 01:00:18;;;;;;;5.90;2.38;;;;;;;2.71;100.00;102094.22;5028842;28;20032;-58
2023/02/26 01:02:43;;;;;;;5.40;1.50;;;;;;;2.86;100.00;102098.00;5028173;28;20037;-54
2023/02/26 01:05:10;;;;;;;4.60;1.60;;;;;;;3.04;100.00;102094.81;5027597;28;20032;-58
2023/02/26 01:07:46;;;;;;;8.27;2.13;;;;;;;3.13;100.00;102104.56;5028678;28;20056;-55
2023/02/26 01:10:12;;;;;;;6.65;2.72;;;;;;;3.21;100.00;102095.13;5027909;28;20037;-54
2023/02/26 01:12:38;;;;;;;9.20;1.92;;;;;;;3.17;100.00;102111.56;5026821;28;20053;-56
2023/02/26 01:15:04;;;;;;;7.78;1.45;;;;;;;3.16;100.00;102104.56;5027653;28;20506;-54
2023/02/26 01:17:56;;;;;;;4.38;1.50;;;;;;;3.10;100.00;102107.09;5028106;28;20163;-59
2023/02/26 01:20:52;;;;;;;8.93;2.15;;;;;;;3.05;100.00;102109.63;5023787;28;20040;-58
2023/02/26 01:23:22;;;;;;;3.65;1.35;;;;;;;2.97;100.00;102125.09;5008250;28;20034;-58
2023/02/26 01:25:50;;;;;;;11.55;1.67;;;;;;;2.77;100.00;102127.34;5007277;28;20380;-55
2023/02/26 01:28:15;;;;;;;6.85;1.60;;;;;;;2.68;100.00;102124.53;5008302;28;20035;-57
2023/02/26 01:30:41;;;;;;;5.57;1.80;;;;;;;2.85;100.00;102138.75;5007193;28;20459;-57
2023/02/26 01:33:19;;;;;;;11.10;1.50;;;;;;;2.76;100.00;102135.97;5005920;28;20041;-57
2023/02/26 01:35:49;;;;;;;4.22;1.65;;;;;;;2.76;100.00;102134.25;5006617;28;20034;-57
2023/02/26 01:38:35;;;;;;;12.93;1.98;;;;;;;2.70;100.00;102144.53;5008171;28;20026;-56
2023/02/26 01:41:06;;;;;;;8.32;1.42;;;;;;;2.69;100.00;102144.50;5008613;28;20105;-59
2023/02/26 01:43:42;;;;;;;6.78;1.30;;;;;;;2.68;100.00;102145.38;5020293;28;20476;-59
2023/02/26 01:46:10;;;;;;;14.32;2.17;;;;;;;2.71;100.00;102148.88;4992841;28;20036;-55
2023/02/26 01:48:50;;;;;;;8.23;1.50;;;;;;;2.61;100.00;102154.75;5026561;28;20021;-60
2023/02/26 01:51:16;;;;;;;9.35;1.98;;;;;;;2.53;100.00;102155.47;5027591;28;20030;-58
2023/02/26 01:53:41;;;;;;;5.97;1.30;;;;;;;2.47;100.00;102159.69;5027496;28;20613;-55
2023/02/26 01:56:15;;;;;;;4.78;1.17;;;;;;;2.26;100.00;102164.44;5026103;28;20057;-58
2023/02/26 01:58:40;;;;;;;5.78;1.38;;;;;;;2.32;100.00;102160.25;5009177;28;20053;-54
2023/02/26 02:01:06;;;;;;;7.10;1.63;;;;;;;2.31;100.00;102168.88;5025599;28;20449;-57
2023/02/26 02:03:34;;;;;;;9.73;1.52;;;;;;;2.17;100.00;102168.56;5027209;28;20440;-59
2023/02/26 02:06:05;;;;;;;5.28;1.15;;;;;;;2.20;100.00;102171.25;5026784;28;20091;-57
2023/02/26 02:08:34;;;;;;;8.65;1.55;;;;;;;2.05;100.00;102175.25;5026176;28;20022;-58
2023/02/26 02:11:00;;;;;;;6.45;1.27;;;;;;;2.00;100.00;102180.34;5017011;28;20029;-58
2023/02/26 02:13:29;;;;;;;6.70;1.33;;;;;;;1.86;99.22;102176.53;5006468;28;20652;-57
2023/02/26 02:15:58;;;;;;;9.75;1.00;;;;;;;1.96;98.48;102178.50;5013820;28;20018;-58
2023/02/26 02:18:37;;;;;;;4.63;1.13;;;;;;;1.96;97.73;102177.63;5025949;28;20440;-59
2023/02/26 02:21:20;;;;;;;9.95;1.15;;;;;;;1.87;97.06;102184.34;5002175;28;20033;-57
2023/02/26 02:23:54;;;;;;;8.10;1.23;;;;;;;1.79;97.28;102182.41;5007005;28;20118;-56
2023/02/26 02:26:41;;;;;;;4.95;1.20;;;;;;;1.75;96.73;102189.28;5005856;28;20034;-58
2023/02/26 02:29:18;;;;;;;8.80;1.20;;;;;;;1.64;97.85;102199.41;5007813;28;20068;-58
2023/02/26 02:31:45;;;;;;;5.72;1.40;;;;;;;1.71;96.82;102198.69;5006260;28;20095;-57
2023/02/26 02:34:15;;;;;;;5.60;1.17;;;;;;;1.64;97.11;102205.47;5007321;28;20894;-56
2023/02/26 02:36:45;;;;;;;3.33;0.98;;;;;;;1.64;97.41;102209.78;4991404;28;20030;-54
2023/02/26 02:39:14;;;;;;;8.82;1.92;;;;;;;1.61;97.35;102212.31;5006378;28;20037;-54
2023/02/26 02:41:45;;;;;;;9.02;1.08;;;;;;;1.58;97.66;102217.41;5006585;28;20041;-54
2023/02/26 02:44:13;;;;;;;8.73;1.40;;;;;;;1.60;97.73;102216.63;5007139;28;20034;-61
2023/02/26 02:46:39;;;;;;;7.47;1.30;;;;;;;1.57;98.00;102213.97;4990290;28;20040;-59
2023/02/26 02:49:16;;;;;;;5.75;1.10;;;;;;;1.55;98.34;102217.34;5006798;28;20551;-56
2023/02/26 02:51:52;;;;;;;5.32;1.23;;;;;;;1.35;99.30;102225.47;5009948;28;20709;-55
2023/02/26 02:54:20;;;;;;;6.72;1.17;;;;;;;1.44;98.59;102220.53;5007725;28;20108;-55
2023/02/26 02:56:50;;;;;;;4.47;1.23;;;;;;;1.41;98.71;102219.59;5006249;28;20034;-52
2023/02/26 02:59:20;;;;;;;9.63;1.55;;;;;;;1.46;98.86;102220.56;5002989;28;20022;-57
2023/02/26 03:02:00;;;;;;;5.70;0.88;;;;;;;1.42;99.14;102223.94;5007256;28;20354;-57
2023/02/26 03:04:25;;;;;;;7.65;1.63;;;;;;;1.41;99.01;102230.84;4988675;28;20384;-59
2023/02/26 03:06:50;;;;;;;8.40;1.38;;;;;;;1.33;100.00;102228.06;5007769;28;20026;-58
2023/02/26 03:09:16;;;;;;;8.32;1.27;;;;;;;1.30;99.65;102224.50;5008687;28;20057;-57
2023/02/26 03:11:41;;;;;;;4.85;1.05;;;;;;;1.22;100.00;102225.16;4988582;28;20120;-60
2023/02/26 03:14:09;;;;;;;8.57;1.27;;;;;;;1.29;100.00;102231.38;5024883;28;20048;-56
2023/02/26 03:16:53;;;;;;;3.45;1.08;;;;;;;1.16;100.00;102225.00;5024427;28;20554;-58
2023/02/26 03:19:39;;;;;;;4.03;1.30;;;;;;;1.26;99.88;102234.78;5011559;28;20061;-56
2023/02/26 03:22:12;;;;;;;12.68;1.50;;;;;;;1.44;98.58;102235.25;5005827;28;20025;-57
2023/02/26 03:24:51;;;;;;;6.15;1.08;;;;;;;1.33;98.68;102238.44;5005522;28;20030;-57
2023/02/26 03:27:26;;;;;;;9.80;1.42;;;;;;;1.32;98.71;102234.06;5020763;28;20060;-58
2023/02/26 03:29:55;;;;;;;5.15;1.02;;;;;;;1.28;99.09;102233.94;5025403;28;20022;-61
2023/02/26 03:32:40;;;;;;;5.35;1.20;;;;;;;1.23;99.58;102242.50;5025304;28;20349;-58
2023/02/26 03:35:21;;;;;;;7.90;1.30;;;;;;;1.28;99.30;102240.03;5019751;28;20153;-59
2023/02/26 03:37:53;;;;;;;7.90;1.30;;;;;;;1.26;99.24;102247.78;5006844;28;20066;-58
2023/02/26 03:40:26;;;;;;;7.35;1.55;;;;;;;1.25;99.23;102251.22;4987553;28;20022;-56
2023/02/26 03:42:56;;;;;;;1.88;0.90;;;;;;;1.21;99.95;102257.13;5005584;28;20104;-60
2023/02/26 03:45:25;;;;;;;9.05;1.27;;;;;;;1.14;100.00;102257.81;4994857;28;20034;-61
2023/02/26 03:47:52;;;;;;;6.43;1.05;;;;;;;1.09;100.00;102256.81;5009113;28;20096;-55
2023/02/26 03:50:26;;;;;;;6.40;0.98;;;;;;;1.02;100.00;102260.94;5010496;28;20054;-59
2023/02/26 03:52:52;;;;;;;6.35;1.27;;;;;;;1.10;100.00;102261.16;5007873;28;20532;-57
2023/02/26 03:55:27;;;;;;;3.17;1.08;;;;;;;1.02;100.00;102262.66;4994961;28;20018;-57
2023/02/26 03:57:53;;;;;;;5.03;1.27;;;;;;;1.00;100.00;102265.22;5008352;28;20483;-53
2023/02/26 04:00:18;;;;;;;3.83;0.82;;;;;;;0.99;100.00;102260.84;5010718;28;20049;-57
2023/02/26 04:03:10;;;;;;;8.02;1.40;;;;;;;0.98;100.00;102272.97;5010048;28;20069;-59
2023/02/26 04:05:39;;;;;;;12.98;1.15;;;;;;;0.92;100.00;102269.28;5008441;28;20083;-59
2023/02/26 04:08:05;;;;;;;4.57;1.25;;;;;;;0.96;100.00;102269.44;5008246;28;20472;-57
2023/02/26 04:10:39;;;;;;;21.40;2.15;;;;;;;0.92;100.00;102280.56;5010037;28;20071;-60
2023/02/26 04:13:04;;;;;;;5.68;1.13;;;;;;;0.92;100.00;102277.06;5014502;28;20030;-59
2023/02/26 04:15:29;;;;;;;7.18;1.42;;;;;;;0.85;100.00;102278.63;5009521;28;20033;-59
2023/02/26 04:17:55;;;;;;;4.72;1.13;;;;;;;0.90;99.84;102287.41;5009687;28;20065;-58
2023/02/26 04:20:20;;;;;;;13.88;1.77;;;;;;;0.94;99.47;102285.81;5015822;28;20021;-58
2023/02/26 04:22:45;;;;;;;9.35;1.80;;;;;;;0.95;99.21;102292.75;5010277;28;20026;-60
2023/02/26 04:25:11;;;;;;;7.50;1.73;;;;;;;0.98;99.22;102298.03;5009128;28;20474;-56
2023/02/26 04:27:36;;;;;;;6.57;2.00;;;;;;;0.83;100.00;102301.03;5009392;28;20449;-57
2023/02/26 04:30:01;;;;;;;6.72;2.00;;;;;;;0.89;99.76;102309.03;5008719;28;20050;-54
2023/02/26 04:32:27;;;;;;;10.55;2.47;;;;;;;0.86;100.00;102309.81;5009217;28;20049;-53
2023/02/26 04:34:52;;;;;;;6.25;2.60;;;;;;;0.86;100.00;102312.41;5009393;28;20061;-58
2023/02/26 04:37:18;;;;;;;8.20;1.67;;;;;;;0.87;100.00;102315.88;5010929;28;20022;-56
2023/02/26 04:39:43;;;;;;;6.10;1.88;;;;;;;0.88;99.96;102317.66;5025155;28;20044;-55
2023/02/26 04:42:08;;;;;;;6.22;1.83;;;;;;;0.93;100.00;102312.59;5027979;28;20024;-58
2023/02/26 04:44:34;;;;;;;8.65;1.63;;;;;;;0.88;100.00;102307.28;5028510;28;20021;-56
2023/02/26 04:46:59;;;;;;;14.82;1.90;;;;;;;0.80;100.00;102313.94;5022117;28;20034;-52
2023/02/26 04:49:24;;;;;;;9.93;1.52;;;;;;;0.79;100.00;102313.06;5009140;28;20033;-55
2023/02/26 04:51:50;;;;;;;8.32;1.95;;;;;;;0.84;100.00;102318.41;5008481;28;20018;-61
2023/02/26 04:54:15;;;;;;;3.53;1.50;;;;;;;0.67;100.00;102329.13;5008504;28;20033;-58
2023/02/26 04:56:41;;;;;;;6.05;1.80;;;;;;;0.68;100.00;102333.47;5009692;28;20257;-56
2023/02/26 04:59:06;;;;;;;9.88;1.67;;;;;;;0.64;100.00;102334.22;5009145;28;20492;-58
2023/02/26 05:01:31;;;;;;;6.43;1.58;;;;;;;0.63;100.00;102333.34;5007787;28;20034;-59
2023/02/26 05:03:57;;;;;;;3.88;0.95;;;;;;;0.62;100.00;102331.56;5009418;28;20049;-58
2023/02/26 05:06:22;;;;;;;10.00;1.70;;;;;;;0.59;100.00;102348.75;5013856;28;20038;-59
2023/02/26 05:08:47;;;;;;;13.88;1.55;;;;;;;0.53;100.00;102341.66;5008671;28;20026;-54
2023/02/26 05:11:13;;;;;;;4.63;1.48;;;;;;;0.62;100.00;102343.66;5007350;28;20539;-58
2023/02/26 05:13:38;;;;;;;6.20;1.48;;;;;;;0.62;100.00;102347.16;5010006;28;20056;-54
2023/02/26 05:16:05;;;;;;;5.00;1.38;;;;;;;0.52;100.00;102344.19;5008679;28;20108;-57
2023/02/26 05:18:31;;;;;;;9.18;1.60;;;;;;;0.48;100.00;102349.28;4991135;28;20380;-58
2023/02/26 05:20:57;;;;;;;4.97;1.20;;;;;;;0.40;100.00;102348.16;5009044;28;20029;-60
2023/02/26 05:23:22;;;;;;;4.30;1.88;;;;;;;0.46;100.00;102358.75;5010590;28;20122;-57
2023/02/26 05:25:47;;;;;;;8.38;1.52;;;;;;;0.42;100.00;102364.63;5008541;28;20060;-59
2023/02/26 05:28:13;;;;;;;5.63;1.20;;;;;;;0.46;100.00;102365.63;4990389;28;20026;-56
2023/02/26 05:30:39;;;;;;;7.50;1.00;;;;;;;0.37;100.00;102372.25;5008915;28;20050;-58
2023/02/26 05:33:04;;;;;;;2.38;0.63;;;;;;;0.36;100.00;102377.44;5024994;28;20368;-57
2023/02/26 05:35:30;;;;;;;3.22;1.00;;;;;;;0.48;100.00;102384.72;5026748;28;20684;-58
2023/02/26 05:37:55;;;;;;;11.77;1.48;;;;;;;0.53;100.00;102384.84;5027947;28;20029;-58
2023/02/26 05:40:20;;;;;;;6.78;1.00;;;;;;;0.53;100.00;102380.56;5024834;28;20108;-57
2023/02/26 05:42:45;;;;;;;6.75;1.10;;;;;;;0.54;100.00;102384.06;5028738;28;20032;-60
2023/02/26 05:45:11;;;;;;;7.43;1.50;;;;;;;0.43;100.00;102388.88;5027898;28;20112;-60
2023/02/26 05:47:36;;;;;;;4.97;1.30;;;;;;;0.42;100.00;102390.56;5027882;28;20057;-57
2023/02/26 05:50:03;;;;;;;8.35;1.80;;;;;;;0.33;100.00;102392.88;5014748;28;20026;-59
2023/02/26 05:52:28;;;;;;;4.88;1.48;;;;;;;0.23;100.00;102397.75;5008096;28;20030;-57
2023/02/26 05:54:54;;;;;;;11.13;1.20;;;;;;;0.27;100.00;102392.66;5006779;28;20030;-56
2023/02/26 05:57:20;;;;;;;7.05;0.77;;;;;;;0.30;100.00;102403.16;5008011;28;20022;-55
2023/02/26 05:59:45;;;;;;;5.88;1.02;;;;;;;0.20;100.00;102408.00;5010743;28;20080;-58
2023/02/26 06:02:10;;;;;;;8.15;1.33;;;;;;;0.16;100.00;102413.03;5007901;28;20038;-58
2023/02/26 06:04:36;;;;;;;6.05;1.60;;;;;;;0.08;100.00;102420.53;5006771;28;20095;-56
2023/02/26 06:07:01;;;;;;;6.90;1.27;;;;;;;0.06;100.00;102417.03;5006510;28;20543;-58
2023/02/26 06:09:27;;;;;;;5.15;0.98;;;;;;;0.11;100.00;102423.22;5008883;28;20052;-61
2023/02/26 06:11:52;;;;;;;4.38;1.27;;;;;;;0.08;100.00;102421.41;5024736;28;20055;-59
2023/02/26 06:14:17;;;;;;;5.68;1.30;;;;;;;0.01;100.00;102415.97;5026593;28;20034;-58
2023/02/26 06:16:43;;;;;;;14.95;1.80;;;;;;;-0.04;100.00;102416.69;5025138;28;20024;-60
2023/02/26 06:19:08;;;;;;;4.22;1.42;;;;;;;-0.14;100.00;102415.47;5025417;28;20026;-59
2023/02/26 06:21:33;;;;;;;7.13;1.10;;;;;;;-0.23;100.00;102424.63;5025210;28;20022;-56
2023/02/26 06:23:59;;;;;;;2.72;1.00;;;;;;;-0.34;100.00;102427.69;5025679;28;21128;-58
2023/02/26 06:26:24;;;;;;;2.67;0.93;;;;;;;-0.41;100.00;102436.06;5025209;28;20025;-61
2023/02/26 06:28:49;;;;;;;2.95;1.10;;;;;;;-0.47;100.00;102435.81;5027087;28;20487;-57
2023/02/26 06:31:15;;;;;;;6.18;1.30;;;;;;;-0.54;100.00;102445.94;5025801;28;20054;-58
2023/02/26 06:33:40;;;;;;;2.33;0.93;;;;;;;-0.60;100.00;102455.19;5025818;28;20032;-58
2023/02/26 06:36:07;;;;;;;2.05;1.10;;;;;;;-0.64;100.00;102465.44;5024743;28;20035;-60
2023/02/26 06:38:32;;;;;;;2.75;1.20;;;;;;;-0.63;100.00;102466.34;5026520;28;20068;-58
2023/02/26 06:40:57;;;;;;;9.48;1.10;;;;;;;-0.46;100.00;102468.66;5024875;28;20045;-58
2023/02/26 06:43:23;;;;;;;8.40;1.17;;;;;;;-0.42;100.00;102479.19;5026022;28;20057;-59
2023/02/26 06:45:48;;;;;;;5.05;1.23;;;;;;;-0.36;100.00;102485.47;5026323;28;20112;-57
2023/02/26 06:48:14;;;;;;;9.90;1.58;;;;;;;-0.34;100.00;102487.28;5025054;28;20022;-56
2023/02/26 06:50:39;;;;;;;4.30;1.30;;;;;;;-0.26;100.00;102491.06;5025314;28;20047;-59
2023/02/26 06:53:05;;;;;;;5.75;1.27;;;;;;;-0.24;100.00;102490.22;5025420;28;20297;-57
2023/02/26 06:55:30;;;;;;;7.13;2.15;;;;;;;-0.24;100.00;102495.41;5023991;28;20494;-60
2023/02/26 06:57:56;;;;;;;8.98;1.35;;;;;;;-0.29;100.00;102498.72;5025712;28;20095;-58
2023/02/26 07:00:22;;;;;;;4.97;1.23;;;;;;;-0.28;100.00;102502.16;5025123;28;20025;-60
2023/02/26 07:02:49;;;;;;;5.72;1.40;;;;;;;-0.30;100.00;102509.88;5025050;28;20105;-58
2023/02/26 07:05:14;;;;;;;4.78;1.42;;;;;;;-0.33;100.00;102516.66;5025407;28;20037;-60
2023/02/26 07:07:40;;;;;;;8.02;1.48;;;;;;;-0.32;100.00;102519.31;5025276;28;20025;-58
2023/02/26 07:10:06;;;;;;;6.30;1.38;;;;;;;-0.26;100.00;102519.56;5024950;28;20056;-57
2023/02/26 07:12:31;;;;;;;2.85;1.20;;;;;;;-0.19;100.00;102522.34;5024771;28;20105;-57
2023/02/26 07:14:57;;;;;;;9.15;1.45;;;;;;;-0.10;100.00;102530.47;5025369;28;20017;-59
2023/02/26 07:17:22;;;;;;;6.30;1.20;;;;;;;0.07;100.00;102527.66;5023382;28;20391;-62
2023/02/26 07:19:50;;;;;;;8.55;1.33;;;;;;;0.09;100.00;102533.78;5028890;28;20025;-59
2023/02/26 07:22:15;;;;;;;6.50;1.77;;;;;;;0.23;100.00;102536.88;5009062;28;20026;-60
2023/02/26 07:24:41;;;;;;;7.85;1.58;;;;;;;0.35;100.00;102531.25;5017148;28;20026;-54
2023/02/26 07:27:07;;;;;;;7.57;1.30;;;;;;;0.43;100.00;102539.31;4995146;28;20037;-62
2023/02/26 07:29:32;;;;;;;2.97;1.10;;;;;;;0.49;100.00;102536.94;5029368;28;20034;-60
2023/02/26 07:31:58;;;;;;;3.92;0.95;;;;;;;0.56;99.83;102541.50;5028268;28;20045;-58
2023/02/26 07:34:23;;;;;;;9.00;1.10;;;;;;;0.62;99.68;102546.03;5028896;28;20075;-61
2023/02/26 07:36:49;;;;;;;2.60;0.80;;;;;;;0.91;98.92;102551.34;5028324;28;20059;-56
2023/02/26 07:39:14;;;;;;;5.28;1.05;;;;;;;0.98;97.68;102550.72;5027296;28;20133;-57
2023/02/26 07:41:39;;;;;;;2.38;0.82;;;;;;;1.09;97.09;102558.00;5025775;28;20083;-60
2023/02/26 07:44:05;;;;;;;6.60;0.93;;;;;;;1.22;96.10;102561.88;5028852;28;20167;-57
2023/02/26 07:46:30;;;;;;;4.32;0.90;;;;;;;1.23;95.83;102561.03;5027645;28;20028;-58
2023/02/26 07:48:55;;;;;;;6.47;1.17;;;;;;;1.20;95.29;102567.00;5028237;28;20087;-57
2023/02/26 07:51:21;;;;;;;5.65;1.17;;;;;;;1.41;94.55;102568.53;5029362;28;20026;-58
2023/02/26 07:53:46;;;;;;;5.80;1.58;;;;;;;1.58;93.87;102576.00;5027800;28;20029;-59
2023/02/26 07:56:11;;;;;;;1.48;0.68;;;;;;;1.64;93.07;102576.19;5028148;28;20044;-59
2023/02/26 07:58:37;;;;;;;3.92;1.27;;;;;;;1.79;91.95;102580.09;5008370;28;20030;-55
2023/02/26 08:01:02;;;;;;;5.00;0.80;;;;;;;1.94;91.54;102580.59;5028575;28;20059;-57
2023/02/26 08:03:27;;;;;;;8.15;1.40;;;;;;;1.86;90.88;102577.75;5026795;28;20021;-61
2023/02/26 08:05:53;;;;;;;4.85;1.17;;;;;;;1.86;90.33;102587.25;5028735;28;20018;-55
2023/02/26 08:08:18;;;;;;;3.28;0.73;;;;;;;1.89;90.45;102590.84;5027367;28;20104;-56
2023/02/26 08:10:43;;;;;;;4.47;1.10;;;;;;;2.01;90.93;102592.94;5027661;28;20388;-59
2023/02/26 08:13:09;;;;;;;2.50;0.75;;;;;;;2.09;89.88;102597.47;5028127;28;20484;-56
2023/02/26 08:15:35;;;;;;;4.43;0.90;;;;;;;2.12;88.89;102600.16;5028277;28;20432;-56
2023/02/26 08:18:00;;;;;;;7.55;1.15;;;;;;;2.24;87.80;102595.34;5027220;28;20065;-59
2023/02/26 08:20:25;;;;;;;2.08;0.90;;;;;;;2.19;87.46;102596.91;5027785;28;20438;-56
2023/02/26 08:22:51;;;;;;;5.72;1.50;;;;;;;2.24;86.66;102602.25;5027239;28;20472;-60
2023/02/26 08:25:16;;;;;;;4.20;1.10;;;;;;;2.04;85.01;102597.31;5026865;28;20762;-60
2023/02/26 08:27:42;;;;;;;6.72;1.20;;;;;;;2.03;84.62;102605.97;5026705;28;20033;-56
2023/02/26 08:30:08;;;;;;;5.50;1.25;;;;;;;2.16;85.64;102611.56;5025394;28;20029;-58
2023/02/26 08:32:34;;;;;;;3.40;1.20;;;;;;;2.37;84.13;102612.19;5027094;28;20037;-59
2023/02/26 08:34:59;;;;;;;5.30;1.65;;;;;;;2.31;83.39;102617.19;5025838;28;20175;-57
2023/02/26 08:37:25;;;;;;;3.65;1.30;;;;;;;2.16;83.18;102625.44;5027089;28;20021;-59
2023/02/26 08:39:51;;;;;;;15.20;1.60;;;;;;;2.31;83.78;102629.31;5026122;28;20468;-56
2023/02/26 08:42:19;;;;;;;5.10;1.08;;;;;;;2.39;82.80;102625.22;5018210;28;20034;-58
2023/02/26 08:44:44;;;;;;;6.63;1.40;;;;;;;2.56;81.74;102641.31;5026753;28;20018;-57
2023/02/26 08:47:10;;;;;;;6.63;1.23;;;;;;;2.48;82.95;102638.53;5027553;28;20553;-56
2023/02/26 08:49:35;;;;;;;5.28;1.20;;;;;;;2.77;81.86;102642.78;5026888;28;20703;-60
2023/02/26 08:52:00;;;;;;;4.43;1.23;;;;;;;2.76;81.47;102644.50;5026658;28;20119;-56
2023/02/26 08:54:26;;;;;;;15.05;1.17;;;;;;;2.74;81.85;102647.91;5027032;28;20060;-59
2023/02/26 08:56:56;;;;;;;3.40;0.85;;;;;;;2.69;83.05;102650.38;5026837;28;20387;-60
2023/02/26 08:59:22;;;;;;;6.30;1.02;;;;;;;2.60;82.17;102663.13;5027843;28;20026;-61
2023/02/26 09:01:48;;;;;;;2.83;0.70;;;;;;;2.72;81.90;102655.69;5026304;28;20133;-55
2023/02/26 09:04:13;;;;;;;1.52;0.75;;;;;;;2.96;80.83;102649.38;5026473;28;20556;-59
2023/02/26 09:06:39;;;;;;;2.10;0.80;;;;;;;2.94;78.67;102661.47;5026310;28;20411;-59
2023/02/26 09:09:04;;;;;;;3.58;1.10;;;;;;;2.93;78.39;102670.13;5027573;28;20415;-59
2023/02/26 09:11:31;;;;;;;7.13;0.93;;;;;;;3.05;77.46;102669.59;5024803;28;20267;-53
2023/02/26 09:13:57;;;;;;;4.18;1.00;;;;;;;3.23;76.52;102666.59;5027340;28;20468;-58
2023/02/26 09:16:23;;;;;;;2.33;0.90;;;;;;;3.06;76.35;102680.88;5026337;28;20025;-54
2023/02/26 09:18:49;;;;;;;4.35;0.65;;;;;;;3.05;77.17;102677.41;5026556;28;20071;-56
2023/02/26 09:21:14;;;;;;;0.88;0.60;;;;;;;2.95;78.24;102676.25;5026059;28;20037;-56
2023/02/26 09:23:39;;;;;;;6.20;1.00;;;;;;;2.82;78.84;102676.75;5026288;28;20318;-56
2023/02/26 09:26:07;;;;;;;5.05;1.63;;;;;;;3.20;78.22;102679.53;5030842;28;20049;-59
2023/02/26 09:28:33;;;;;;;4.68;1.23;;;;;;;3.26;76.31;102684.91;5025665;28;20026;-58
2023/02/26 09:30:58;;;;;;;5.40;0.90;;;;;;;3.08;75.53;102695.72;5025991;28;20048;-58
2023/02/26 09:33:24;;;;;;;4.05;0.80;;;;;;;3.32;73.51;102689.41;5023472;28;20037;-60
2023/02/26 09:35:51;;;;;;;3.13;0.93;;;;;;;3.35;74.63;102688.59;5018042;28;20522;-60
2023/02/26 09:38:16;;;;;;;2.33;0.80;;;;;;;3.49;73.59;102700.25;5013562;28;20022;-59
2023/02/26 09:41:11;;;;;;;5.22;0.77;;;;;;;3.52;72.37;102705.53;4991532;28;20631;-58
2023/02/26 09:43:48;;;;;;;5.88;0.90;;;;;;;3.40;71.85;102702.59;4980234;28;20088;-59
2023/02/26 09:46:23;;;;;;;2.22;0.80;;;;;;;3.41;71.17;102705.25;4993930;28;20029;-55
2023/02/26 09:48:50;;;;;;;2.15;1.05;;;;;;;3.47;71.12;102704.56;5009170;28;20139;-59
2023/02/26 09:51:19;;;;;;;4.00;0.85;;;;;;;3.53;71.70;102709.91;5004759;28;20435;-58
2023/02/26 09:53:45;;;;;;;4.07;0.73;;;;;;;3.75;71.00;102713.06;5008152;28;20018;-60
2023/02/26 09:56:16;;;;;;;3.30;0.55;;;;;;;3.65;70.33;102709.34;5006159;28;20388;-61
2023/02/26 09:58:44;;;;;;;3.45;0.80;;;;;;;3.75;70.81;102709.56;5017313;28;20037;-56
2023/02/26 10:01:20;;;;;;;2.55;0.70;;;;;;;3.77;69.83;102718.34;5024762;28;20043;-60
2023/02/26 10:04:10;;;;;;;4.05;0.98;;;;;;;3.85;68.52;102715.91;5024343;28;20116;-58
2023/02/26 10:06:45;;;;;;;1.02;0.77;;;;;;;3.66;68.54;102718.06;5023245;28;20022;-58
2023/02/26 10:09:23;;;;;;;2.05;0.57;;;;;;;3.45;67.52;102721.88;5024041;28;20033;-58
2023/02/26 10:12:19;;;;;;;4.10;0.82;;;;;;;3.68;68.43;102732.03;5026519;28;20041;-57
2023/02/26 10:14:53;;;;;;;2.50;0.60;;;;;;;4.00;67.68;102728.47;4984502;28;20413;-58
2023/02/26 10:17:28;;;;;;;0.95;0.50;;;;;;;4.07;68.46;102727.75;5006019;28;20042;-60
2023/02/26 10:19:59;;;;;;;5.47;1.10;;;;;;;4.25;69.61;102737.72;5005673;28;20072;-60
2023/02/26 10:22:26;;;;;;;3.38;1.13;;;;;;;4.20;68.55;102739.34;5006149;28;20025;-59
2023/02/26 10:25:01;;;;;;;3.53;0.90;;;;;;;3.95;70.55;102746.59;5007921;28;20097;-60
2023/02/26 10:27:42;;;;;;;2.28;0.68;;;;;;;4.24;67.82;102749.00;5024889;28;20056;-61
2023/02/26 10:30:21;;;;;;;2.75;0.73;;;;;;;4.24;68.14;102750.75;5014886;28;20038;-60
2023/02/26 10:32:57;;;;;;;8.20;1.52;;;;;;;4.06;68.91;102753.81;5021104;28;20029;-60
2023/02/26 10:35:26;;;;;;;3.92;0.80;;;;;;;4.39;68.13;102756.31;5024165;28;20113;-62
2023/02/26 10:37:56;;;;;;;0.98;0.68;;;;;;;4.48;68.37;102760.88;5025744;28;20079;-63
2023/02/26 10:40:33;;;;;;;1.30;0.50;;;;;;;4.68;65.69;102763.94;5006730;28;20032;-63
2023/02/26 10:43:03;;;;;;;2.10;0.90;;;;;;;4.74;66.90;102765.78;5024224;28;20494;-62
2023/02/26 10:45:56;;;;;;;3.05;0.73;;;;;;;4.72;68.45;102762.25;5006650;28;20025;-62
2023/02/26 10:48:27;;;;;;;3.75;1.02;;;;;;;4.77;68.75;102768.47;5006988;28;20417;-62
2023/02/26 10:50:56;;;;;;;2.95;0.60;;;;;;;4.96;66.58;102774.06;5026092;28;20033;-54
2023/02/26 10:53:22;;;;;;;3.43;0.73;;;;;;;4.95;66.20;102767.09;5022636;28;20101;-61
2023/02/26 10:56:08;;;;;;;2.80;0.70;;;;;;;4.86;67.70;102764.28;5025573;28;20037;-59
2023/02/26 10:58:34;;;;;;;3.50;0.90;;;;;;;4.97;68.22;102774.97;5006713;28;20116;-60
2023/02/26 11:00:59;;;;;;;5.38;0.93;;;;;;;4.88;65.47;102766.06;5026871;28;20104;-58
2023/02/26 11:03:37;;;;;;;0.98;0.63;;;;;;;4.90;65.31;102773.94;5007822;28;20051;-61
2023/02/26 11:06:04;;;;;;;6.85;1.05;;;;;;;5.11;66.51;102767.38;5009615;28;20037;-60
2023/02/26 11:08:33;;;;;;;1.83;0.68;;;;;;;5.42;65.97;102774.09;5009155;28;20029;-60
2023/02/26 11:11:00;;;;;;;6.57;1.27;;;;;;;5.36;65.89;102781.81;5009109;28;20033;-61
2023/02/26 11:13:29;;;;;;;6.00;1.52;;;;;;;4.91;64.73;102775.72;5027450;28;20022;-58
2023/02/26 11:16:00;;;;;;;2.60;1.10;;;;;;;4.76;65.80;102760.59;5027933;28;20021;-61
2023/02/26 11:18:29;;;;;;;4.32;0.80;;;;;;;4.93;66.98;102784.47;5004928;28;20480;-59
2023/02/26 11:20:57;;;;;;;3.58;0.95;;;;;;;5.09;67.27;102780.44;5014044;28;20468;-58
2023/02/26 11:23:26;;;;;;;2.28;0.77;;;;;;;5.66;67.91;102772.78;5027068;28;20037;-61
2023/02/26 11:25:58;;;;;;;5.30;1.00;;;;;;;5.50;65.79;102784.72;5008405;28;20055;-60
2023/02/26 11:28:30;;;;;;;4.05;0.75;;;;;;;5.28;63.55;102779.09;5026442;28;20434;-59
2023/02/26 11:30:56;;;;;;;3.08;0.80;;;;;;;5.50;65.27;102778.59;5026971;28;20096;-57
2023/02/26 11:33:35;;;;;;;3.95;0.82;;;;;;;5.37;65.43;102767.94;5026424;28;20061;-62